sensor_id;sensor_type;location;lat;lon;timestamp;P1;durP1;ratioP1;P2;durP2;ratioP2
27893;SDS011;15240;50.812;4.792;2022-11-14T00:01:06;39.07;;;28.17;;
27893;SDS011;15240;50.812;4.792;2022-11-14T00:03:32;42.23;;;28.23;;
27893;SDS011;15240;50.812;4.792;2022-11-14T00:05:58;41.47;;;29.30;;
27893;SDS011;15240;50.812;4.792;2022-11-14T00:08:24;36.13;;;26.33;;
27893;SDS011;15240;50.812;4.792;2022-11-14T00:10:50;35.27;;;24.43;;
27893;SDS011;15240;50.812;4.792;2022-11-14T00:13:17;33.50;;;24.33;;
27893;SDS011;15240;50.812;4.792;2022-11-14T00:15:46;37.37;;;24.43;;
27893;SDS011;15240;50.812;4.792;2022-11-14T00:18:14;35.87;;;24.23;;
27893;SDS011;15240;50.812;4.792;2022-11-14T00:20:40;36.23;;;25.47;;
27893;SDS011;15240;50.812;4.792;2022-11-14T00:23:06;36.10;;;24.93;;
27893;SDS011;15240;50.812;4.792;2022-11-14T00:25:32;30.60;;;22.90;;
27893;SDS011;15240;50.812;4.792;2022-11-14T00:27:59;35.10;;;24.87;;
27893;SDS011;15240;50.812;4.792;2022-11-14T00:30:25;37.67;;;25.30;;
27893;SDS011;15240;50.812;4.792;2022-11-14T00:32:51;34.07;;;24.37;;
27893;SDS011;15240;50.812;4.792;2022-11-14T00:35:17;40.50;;;24.87;;
27893;SDS011;15240;50.812;4.792;2022-11-14T00:37:44;37.20;;;24.60;;
27893;SDS011;15240;50.812;4.792;2022-11-14T00:40:10;35.30;;;24.77;;
27893;SDS011;15240;50.812;4.792;2022-11-14T00:42:36;34.07;;;24.83;;
27893;SDS011;15240;50.812;4.792;2022-11-14T00:45:02;34.03;;;23.97;;
27893;SDS011;15240;50.812;4.792;2022-11-14T00:47:28;35.23;;;24.73;;
27893;SDS011;15240;50.812;4.792;2022-11-14T00:49:54;38.47;;;24.47;;
27893;SDS011;15240;50.812;4.792;2022-11-14T00:52:20;37.40;;;25.60;;
27893;SDS011;15240;50.812;4.792;2022-11-14T00:54:46;38.63;;;25.07;;
27893;SDS011;15240;50.812;4.792;2022-11-14T00:57:13;40.03;;;26.70;;
27893;SDS011;15240;50.812;4.792;2022-11-14T00:59:39;41.60;;;26.80;;
27893;SDS011;15240;50.812;4.792;2022-11-14T01:02:05;40.40;;;26.20;;
27893;SDS011;15240;50.812;4.792;2022-11-14T01:04:31;37.83;;;26.17;;
27893;SDS011;15240;50.812;4.792;2022-11-14T01:06:57;37.93;;;26.07;;
27893;SDS011;15240;50.812;4.792;2022-11-14T01:09:24;39.53;;;27.30;;
27893;SDS011;15240;50.812;4.792;2022-11-14T01:11:50;39.53;;;27.47;;
27893;SDS011;15240;50.812;4.792;2022-11-14T01:14:16;42.67;;;28.67;;
27893;SDS011;15240;50.812;4.792;2022-11-14T01:16:42;44.40;;;29.97;;
27893;SDS011;15240;50.812;4.792;2022-11-14T01:19:08;37.10;;;26.33;;
27893;SDS011;15240;50.812;4.792;2022-11-14T01:21:34;33.67;;;22.53;;
27893;SDS011;15240;50.812;4.792;2022-11-14T01:24:00;33.43;;;21.20;;
27893;SDS011;15240;50.812;4.792;2022-11-14T01:26:26;33.87;;;23.07;;
27893;SDS011;15240;50.812;4.792;2022-11-14T01:28:52;33.93;;;23.17;;
27893;SDS011;15240;50.812;4.792;2022-11-14T01:31:20;34.23;;;23.20;;
27893;SDS011;15240;50.812;4.792;2022-11-14T01:33:50;39.13;;;24.43;;
27893;SDS011;15240;50.812;4.792;2022-11-14T01:36:17;35.93;;;25.27;;
27893;SDS011;15240;50.812;4.792;2022-11-14T01:38:43;35.77;;;24.93;;
27893;SDS011;15240;50.812;4.792;2022-11-14T01:41:13;32.60;;;22.73;;
27893;SDS011;15240;50.812;4.792;2022-11-14T01:43:40;34.20;;;23.87;;
27893;SDS011;15240;50.812;4.792;2022-11-14T01:46:09;32.43;;;22.93;;
27893;SDS011;15240;50.812;4.792;2022-11-14T01:49:01;33.30;;;21.57;;
27893;SDS011;15240;50.812;4.792;2022-11-14T01:51:32;34.77;;;20.27;;
27893;SDS011;15240;50.812;4.792;2022-11-14T01:54:02;31.13;;;20.83;;
27893;SDS011;15240;50.812;4.792;2022-11-14T01:56:50;32.77;;;23.07;;
27893;SDS011;15240;50.812;4.792;2022-11-14T01:59:19;31.23;;;21.60;;
27893;SDS011;15240;50.812;4.792;2022-11-14T02:01:47;35.73;;;23.50;;
27893;SDS011;15240;50.812;4.792;2022-11-14T02:04:16;33.87;;;22.93;;
27893;SDS011;15240;50.812;4.792;2022-11-14T02:06:44;36.30;;;24.30;;
27893;SDS011;15240;50.812;4.792;2022-11-14T02:09:10;35.60;;;22.00;;
27893;SDS011;15240;50.812;4.792;2022-11-14T02:11:38;31.03;;;20.30;;
27893;SDS011;15240;50.812;4.792;2022-11-14T02:14:05;28.57;;;18.53;;
27893;SDS011;15240;50.812;4.792;2022-11-14T02:16:32;31.43;;;22.87;;
27893;SDS011;15240;50.812;4.792;2022-11-14T02:18:58;31.67;;;22.30;;
27893;SDS011;15240;50.812;4.792;2022-11-14T02:21:24;30.70;;;22.43;;
27893;SDS011;15240;50.812;4.792;2022-11-14T02:23:50;30.43;;;21.27;;
27893;SDS011;15240;50.812;4.792;2022-11-14T02:26:19;32.20;;;22.70;;
27893;SDS011;15240;50.812;4.792;2022-11-14T02:28:46;31.90;;;22.33;;
27893;SDS011;15240;50.812;4.792;2022-11-14T02:31:13;32.73;;;22.40;;
27893;SDS011;15240;50.812;4.792;2022-11-14T02:33:39;29.93;;;21.03;;
27893;SDS011;15240;50.812;4.792;2022-11-14T02:36:05;33.70;;;23.33;;
27893;SDS011;15240;50.812;4.792;2022-11-14T02:38:32;43.90;;;29.20;;
27893;SDS011;15240;50.812;4.792;2022-11-14T02:40:58;37.37;;;25.73;;
27893;SDS011;15240;50.812;4.792;2022-11-14T02:43:24;37.30;;;24.57;;
27893;SDS011;15240;50.812;4.792;2022-11-14T02:45:51;33.23;;;23.93;;
27893;SDS011;15240;50.812;4.792;2022-11-14T02:48:17;35.83;;;22.93;;
27893;SDS011;15240;50.812;4.792;2022-11-14T02:50:43;35.23;;;24.50;;
27893;SDS011;15240;50.812;4.792;2022-11-14T02:53:09;37.27;;;23.53;;
27893;SDS011;15240;50.812;4.792;2022-11-14T02:55:36;30.50;;;22.17;;
27893;SDS011;15240;50.812;4.792;2022-11-14T02:58:02;30.63;;;20.77;;
27893;SDS011;15240;50.812;4.792;2022-11-14T03:00:28;28.93;;;19.60;;
27893;SDS011;15240;50.812;4.792;2022-11-14T03:02:54;26.00;;;18.43;;
27893;SDS011;15240;50.812;4.792;2022-11-14T03:05:20;24.10;;;17.07;;
27893;SDS011;15240;50.812;4.792;2022-11-14T03:07:46;25.97;;;17.17;;
27893;SDS011;15240;50.812;4.792;2022-11-14T03:10:13;25.87;;;18.40;;
27893;SDS011;15240;50.812;4.792;2022-11-14T03:12:39;25.47;;;17.83;;
27893;SDS011;15240;50.812;4.792;2022-11-14T03:15:05;24.67;;;16.50;;
27893;SDS011;15240;50.812;4.792;2022-11-14T03:17:32;22.53;;;16.63;;
27893;SDS011;15240;50.812;4.792;2022-11-14T03:19:58;25.40;;;16.50;;
27893;SDS011;15240;50.812;4.792;2022-11-14T03:22:25;24.77;;;16.97;;
27893;SDS011;15240;50.812;4.792;2022-11-14T03:24:51;25.13;;;17.63;;
27893;SDS011;15240;50.812;4.792;2022-11-14T03:27:17;27.10;;;17.70;;
27893;SDS011;15240;50.812;4.792;2022-11-14T03:29:43;22.10;;;16.70;;
27893;SDS011;15240;50.812;4.792;2022-11-14T03:32:09;26.93;;;18.57;;
27893;SDS011;15240;50.812;4.792;2022-11-14T03:34:35;26.70;;;18.37;;
27893;SDS011;15240;50.812;4.792;2022-11-14T03:37:02;28.17;;;19.57;;
27893;SDS011;15240;50.812;4.792;2022-11-14T03:39:28;26.90;;;18.90;;
27893;SDS011;15240;50.812;4.792;2022-11-14T03:41:54;27.90;;;19.47;;
27893;SDS011;15240;50.812;4.792;2022-11-14T03:44:20;27.33;;;19.63;;
27893;SDS011;15240;50.812;4.792;2022-11-14T03:46:46;28.60;;;19.93;;
27893;SDS011;15240;50.812;4.792;2022-11-14T03:49:12;28.67;;;19.80;;
27893;SDS011;15240;50.812;4.792;2022-11-14T03:51:38;30.30;;;20.00;;
27893;SDS011;15240;50.812;4.792;2022-11-14T03:54:04;28.00;;;19.47;;
27893;SDS011;15240;50.812;4.792;2022-11-14T03:56:31;29.63;;;20.20;;
27893;SDS011;15240;50.812;4.792;2022-11-14T03:58:57;29.00;;;18.60;;
27893;SDS011;15240;50.812;4.792;2022-11-14T04:01:23;27.93;;;18.87;;
27893;SDS011;15240;50.812;4.792;2022-11-14T04:03:49;27.20;;;19.07;;
27893;SDS011;15240;50.812;4.792;2022-11-14T04:06:15;26.47;;;19.63;;
27893;SDS011;15240;50.812;4.792;2022-11-14T04:08:41;30.50;;;19.53;;
27893;SDS011;15240;50.812;4.792;2022-11-14T04:11:07;28.30;;;19.40;;
27893;SDS011;15240;50.812;4.792;2022-11-14T04:13:33;30.20;;;20.13;;
27893;SDS011;15240;50.812;4.792;2022-11-14T04:15:59;31.30;;;19.83;;
27893;SDS011;15240;50.812;4.792;2022-11-14T04:18:26;26.77;;;19.37;;
27893;SDS011;15240;50.812;4.792;2022-11-14T04:20:52;31.10;;;19.43;;
27893;SDS011;15240;50.812;4.792;2022-11-14T04:23:18;28.97;;;19.93;;
27893;SDS011;15240;50.812;4.792;2022-11-14T04:25:44;30.63;;;19.87;;
27893;SDS011;15240;50.812;4.792;2022-11-14T04:28:11;28.53;;;20.03;;
27893;SDS011;15240;50.812;4.792;2022-11-14T04:30:37;27.57;;;19.30;;
27893;SDS011;15240;50.812;4.792;2022-11-14T04:33:04;32.23;;;20.93;;
27893;SDS011;15240;50.812;4.792;2022-11-14T04:35:30;31.80;;;20.67;;
27893;SDS011;15240;50.812;4.792;2022-11-14T04:37:56;26.70;;;19.13;;
27893;SDS011;15240;50.812;4.792;2022-11-14T04:40:22;27.60;;;17.77;;
27893;SDS011;15240;50.812;4.792;2022-11-14T04:42:48;29.10;;;20.40;;
27893;SDS011;15240;50.812;4.792;2022-11-14T04:45:14;28.10;;;19.10;;
27893;SDS011;15240;50.812;4.792;2022-11-14T04:47:40;29.43;;;19.83;;
27893;SDS011;15240;50.812;4.792;2022-11-14T04:50:06;27.33;;;19.37;;
27893;SDS011;15240;50.812;4.792;2022-11-14T04:52:32;28.17;;;19.57;;
27893;SDS011;15240;50.812;4.792;2022-11-14T04:54:58;28.80;;;20.17;;
27893;SDS011;15240;50.812;4.792;2022-11-14T04:57:25;32.13;;;21.23;;
27893;SDS011;15240;50.812;4.792;2022-11-14T04:59:51;29.73;;;19.60;;
27893;SDS011;15240;50.812;4.792;2022-11-14T05:02:17;27.50;;;18.60;;
27893;SDS011;15240;50.812;4.792;2022-11-14T05:04:43;30.67;;;20.57;;
27893;SDS011;15240;50.812;4.792;2022-11-14T05:07:11;29.80;;;20.50;;
27893;SDS011;15240;50.812;4.792;2022-11-14T05:09:38;30.03;;;20.13;;
27893;SDS011;15240;50.812;4.792;2022-11-14T05:12:04;28.47;;;20.10;;
27893;SDS011;15240;50.812;4.792;2022-11-14T05:14:30;29.90;;;19.67;;
27893;SDS011;15240;50.812;4.792;2022-11-14T05:16:57;30.90;;;18.63;;
27893;SDS011;15240;50.812;4.792;2022-11-14T05:19:23;28.87;;;18.50;;
27893;SDS011;15240;50.812;4.792;2022-11-14T05:21:49;28.00;;;19.03;;
27893;SDS011;15240;50.812;4.792;2022-11-14T05:24:15;27.57;;;18.13;;
27893;SDS011;15240;50.812;4.792;2022-11-14T05:26:41;26.97;;;18.23;;
27893;SDS011;15240;50.812;4.792;2022-11-14T05:29:07;25.17;;;17.60;;
27893;SDS011;15240;50.812;4.792;2022-11-14T05:31:33;27.40;;;17.87;;
27893;SDS011;15240;50.812;4.792;2022-11-14T05:33:59;29.03;;;16.60;;
27893;SDS011;15240;50.812;4.792;2022-11-14T05:36:26;27.10;;;16.83;;
27893;SDS011;15240;50.812;4.792;2022-11-14T05:38:52;27.13;;;17.57;;
27893;SDS011;15240;50.812;4.792;2022-11-14T05:41:19;26.87;;;16.53;;
27893;SDS011;15240;50.812;4.792;2022-11-14T05:43:45;25.20;;;17.10;;
27893;SDS011;15240;50.812;4.792;2022-11-14T05:46:12;24.07;;;17.60;;
27893;SDS011;15240;50.812;4.792;2022-11-14T05:48:39;27.37;;;18.60;;
27893;SDS011;15240;50.812;4.792;2022-11-14T05:51:06;26.20;;;17.77;;
27893;SDS011;15240;50.812;4.792;2022-11-14T05:53:32;23.97;;;16.60;;
27893;SDS011;15240;50.812;4.792;2022-11-14T05:55:59;23.63;;;16.90;;
27893;SDS011;15240;50.812;4.792;2022-11-14T05:58:26;24.97;;;16.13;;
27893;SDS011;15240;50.812;4.792;2022-11-14T06:00:52;25.30;;;17.43;;
27893;SDS011;15240;50.812;4.792;2022-11-14T06:03:18;24.97;;;17.10;;
27893;SDS011;15240;50.812;4.792;2022-11-14T06:05:44;23.23;;;16.53;;
27893;SDS011;15240;50.812;4.792;2022-11-14T06:08:10;25.27;;;16.87;;
27893;SDS011;15240;50.812;4.792;2022-11-14T06:10:37;26.23;;;17.53;;
27893;SDS011;15240;50.812;4.792;2022-11-14T06:13:03;26.87;;;17.57;;
27893;SDS011;15240;50.812;4.792;2022-11-14T06:15:29;26.77;;;17.50;;
27893;SDS011;15240;50.812;4.792;2022-11-14T06:17:56;25.13;;;17.47;;
27893;SDS011;15240;50.812;4.792;2022-11-14T06:20:22;25.30;;;17.33;;
27893;SDS011;15240;50.812;4.792;2022-11-14T06:22:48;24.30;;;16.27;;
27893;SDS011;15240;50.812;4.792;2022-11-14T06:25:14;24.37;;;16.47;;
27893;SDS011;15240;50.812;4.792;2022-11-14T06:27:40;28.77;;;16.73;;
27893;SDS011;15240;50.812;4.792;2022-11-14T06:30:07;31.23;;;17.43;;
27893;SDS011;15240;50.812;4.792;2022-11-14T06:32:33;27.63;;;17.77;;
27893;SDS011;15240;50.812;4.792;2022-11-14T06:34:59;29.83;;;18.10;;
27893;SDS011;15240;50.812;4.792;2022-11-14T06:37:25;27.77;;;18.40;;
27893;SDS011;15240;50.812;4.792;2022-11-14T06:39:51;29.87;;;17.63;;
27893;SDS011;15240;50.812;4.792;2022-11-14T06:42:17;27.10;;;16.80;;
27893;SDS011;15240;50.812;4.792;2022-11-14T06:44:43;26.73;;;17.30;;
27893;SDS011;15240;50.812;4.792;2022-11-14T06:47:09;26.20;;;17.37;;
27893;SDS011;15240;50.812;4.792;2022-11-14T06:49:35;27.40;;;17.83;;
27893;SDS011;15240;50.812;4.792;2022-11-14T06:52:01;31.13;;;18.30;;
27893;SDS011;15240;50.812;4.792;2022-11-14T06:54:27;29.17;;;17.63;;
27893;SDS011;15240;50.812;4.792;2022-11-14T06:56:54;24.73;;;17.03;;
27893;SDS011;15240;50.812;4.792;2022-11-14T06:59:20;24.00;;;16.27;;
27893;SDS011;15240;50.812;4.792;2022-11-14T07:01:46;26.20;;;16.63;;
27893;SDS011;15240;50.812;4.792;2022-11-14T07:04:12;26.87;;;16.97;;
27893;SDS011;15240;50.812;4.792;2022-11-14T07:06:38;26.43;;;16.23;;
27893;SDS011;15240;50.812;4.792;2022-11-14T07:09:05;24.00;;;16.07;;
27893;SDS011;15240;50.812;4.792;2022-11-14T07:11:31;22.60;;;15.10;;
27893;SDS011;15240;50.812;4.792;2022-11-14T07:13:57;24.53;;;15.37;;
27893;SDS011;15240;50.812;4.792;2022-11-14T07:16:24;26.80;;;15.70;;
27893;SDS011;15240;50.812;4.792;2022-11-14T07:18:53;26.30;;;15.63;;
27893;SDS011;15240;50.812;4.792;2022-11-14T07:21:19;34.90;;;22.23;;
27893;SDS011;15240;50.812;4.792;2022-11-14T07:23:45;34.33;;;20.43;;
27893;SDS011;15240;50.812;4.792;2022-11-14T07:26:11;29.70;;;19.17;;
27893;SDS011;15240;50.812;4.792;2022-11-14T07:28:38;33.50;;;20.10;;
27893;SDS011;15240;50.812;4.792;2022-11-14T07:31:05;34.43;;;18.10;;
27893;SDS011;15240;50.812;4.792;2022-11-14T07:33:32;29.50;;;17.67;;
27893;SDS011;15240;50.812;4.792;2022-11-14T07:35:59;25.33;;;16.33;;
27893;SDS011;15240;50.812;4.792;2022-11-14T07:38:25;18.60;;;12.83;;
27893;SDS011;15240;50.812;4.792;2022-11-14T07:40:54;21.07;;;12.93;;
27893;SDS011;15240;50.812;4.792;2022-11-14T07:43:21;19.63;;;13.90;;
27893;SDS011;15240;50.812;4.792;2022-11-14T07:45:47;18.43;;;11.97;;
27893;SDS011;15240;50.812;4.792;2022-11-14T07:48:13;17.80;;;11.73;;
27893;SDS011;15240;50.812;4.792;2022-11-14T07:50:40;19.23;;;12.30;;
27893;SDS011;15240;50.812;4.792;2022-11-14T07:53:06;16.40;;;11.63;;
27893;SDS011;15240;50.812;4.792;2022-11-14T07:55:34;14.87;;;11.03;;
27893;SDS011;15240;50.812;4.792;2022-11-14T07:58:00;16.03;;;11.17;;
27893;SDS011;15240;50.812;4.792;2022-11-14T08:00:26;13.87;;;10.23;;
27893;SDS011;15240;50.812;4.792;2022-11-14T08:02:52;14.37;;;10.40;;
27893;SDS011;15240;50.812;4.792;2022-11-14T08:05:18;13.13;;;10.17;;
27893;SDS011;15240;50.812;4.792;2022-11-14T08:07:45;15.20;;;10.17;;
27893;SDS011;15240;50.812;4.792;2022-11-14T08:10:11;15.50;;;10.60;;
27893;SDS011;15240;50.812;4.792;2022-11-14T08:12:38;15.63;;;10.27;;
27893;SDS011;15240;50.812;4.792;2022-11-14T08:15:05;15.87;;;11.17;;
27893;SDS011;15240;50.812;4.792;2022-11-14T08:17:32;16.50;;;11.90;;
27893;SDS011;15240;50.812;4.792;2022-11-14T08:19:58;14.63;;;10.70;;
27893;SDS011;15240;50.812;4.792;2022-11-14T08:22:24;16.37;;;12.03;;
27893;SDS011;15240;50.812;4.792;2022-11-14T08:24:50;16.43;;;12.27;;
27893;SDS011;15240;50.812;4.792;2022-11-14T08:27:17;18.70;;;12.10;;
27893;SDS011;15240;50.812;4.792;2022-11-14T08:29:43;18.83;;;13.60;;
27893;SDS011;15240;50.812;4.792;2022-11-14T08:32:09;20.90;;;14.13;;
27893;SDS011;15240;50.812;4.792;2022-11-14T08:34:35;23.40;;;14.57;;
27893;SDS011;15240;50.812;4.792;2022-11-14T08:37:02;21.03;;;14.00;;
27893;SDS011;15240;50.812;4.792;2022-11-14T08:39:28;21.63;;;13.93;;
27893;SDS011;15240;50.812;4.792;2022-11-14T08:41:54;17.83;;;12.30;;
27893;SDS011;15240;50.812;4.792;2022-11-14T08:44:20;19.43;;;13.43;;
27893;SDS011;15240;50.812;4.792;2022-11-14T08:46:46;19.37;;;12.20;;
27893;SDS011;15240;50.812;4.792;2022-11-14T08:49:12;16.13;;;11.73;;
27893;SDS011;15240;50.812;4.792;2022-11-14T08:51:38;16.57;;;11.93;;
27893;SDS011;15240;50.812;4.792;2022-11-14T08:54:04;15.60;;;11.90;;
27893;SDS011;15240;50.812;4.792;2022-11-14T08:56:31;19.10;;;12.37;;
27893;SDS011;15240;50.812;4.792;2022-11-14T08:58:57;17.83;;;12.80;;
27893;SDS011;15240;50.812;4.792;2022-11-14T09:01:23;15.60;;;11.43;;
27893;SDS011;15240;50.812;4.792;2022-11-14T09:03:49;20.50;;;13.00;;
27893;SDS011;15240;50.812;4.792;2022-11-14T09:06:16;17.50;;;12.83;;
27893;SDS011;15240;50.812;4.792;2022-11-14T09:08:42;18.67;;;12.47;;
27893;SDS011;15240;50.812;4.792;2022-11-14T09:11:08;16.93;;;13.10;;
27893;SDS011;15240;50.812;4.792;2022-11-14T09:13:34;18.10;;;13.00;;
27893;SDS011;15240;50.812;4.792;2022-11-14T09:16:00;18.33;;;13.13;;
27893;SDS011;15240;50.812;4.792;2022-11-14T09:18:26;19.23;;;13.87;;
27893;SDS011;15240;50.812;4.792;2022-11-14T09:20:58;22.10;;;14.67;;
27893;SDS011;15240;50.812;4.792;2022-11-14T09:23:24;19.73;;;13.57;;
27893;SDS011;15240;50.812;4.792;2022-11-14T09:25:50;22.97;;;14.47;;
27893;SDS011;15240;50.812;4.792;2022-11-14T09:28:16;21.17;;;13.90;;
27893;SDS011;15240;50.812;4.792;2022-11-14T09:30:42;20.47;;;14.73;;
27893;SDS011;15240;50.812;4.792;2022-11-14T09:33:08;21.07;;;14.57;;
27893;SDS011;15240;50.812;4.792;2022-11-14T09:35:35;24.30;;;14.57;;
27893;SDS011;15240;50.812;4.792;2022-11-14T09:38:02;24.60;;;15.77;;
27893;SDS011;15240;50.812;4.792;2022-11-14T09:40:30;20.73;;;14.90;;
27893;SDS011;15240;50.812;4.792;2022-11-14T09:43:40;23.83;;;15.17;;
27893;SDS011;15240;50.812;4.792;2022-11-14T09:45:49;21.77;;;14.37;;
27893;SDS011;15240;50.812;4.792;2022-11-14T09:48:20;22.03;;;15.03;;
27893;SDS011;15240;50.812;4.792;2022-11-14T09:51:01;21.53;;;14.90;;
27893;SDS011;15240;50.812;4.792;2022-11-14T09:55:56;23.47;;;15.57;;
27893;SDS011;15240;50.812;4.792;2022-11-14T09:58:23;23.90;;;16.30;;
27893;SDS011;15240;50.812;4.792;2022-11-14T10:00:50;27.27;;;16.40;;
27893;SDS011;15240;50.812;4.792;2022-11-14T10:11:12;25.10;;;16.00;;
27893;SDS011;15240;50.812;4.792;2022-11-14T10:13:44;28.17;;;16.90;;
27893;SDS011;15240;50.812;4.792;2022-11-14T10:26:51;29.03;;;17.97;;
27893;SDS011;15240;50.812;4.792;2022-11-14T10:34:48;29.77;;;18.60;;
27893;SDS011;15240;50.812;4.792;2022-11-14T10:37:17;27.40;;;17.60;;
27893;SDS011;15240;50.812;4.792;2022-11-14T10:39:51;29.80;;;19.73;;
27893;SDS011;15240;50.812;4.792;2022-11-14T10:42:21;33.07;;;19.40;;
27893;SDS011;15240;50.812;4.792;2022-11-14T10:44:54;29.83;;;19.17;;
27893;SDS011;15240;50.812;4.792;2022-11-14T10:47:22;31.67;;;20.27;;
27893;SDS011;15240;50.812;4.792;2022-11-14T10:49:49;32.20;;;20.37;;
27893;SDS011;15240;50.812;4.792;2022-11-14T10:52:19;31.70;;;20.73;;
27893;SDS011;15240;50.812;4.792;2022-11-14T10:54:47;32.63;;;20.00;;
27893;SDS011;15240;50.812;4.792;2022-11-14T10:57:18;30.87;;;19.27;;
27893;SDS011;15240;50.812;4.792;2022-11-14T10:59:44;36.30;;;21.70;;
27893;SDS011;15240;50.812;4.792;2022-11-14T11:02:11;31.07;;;19.67;;
27893;SDS011;15240;50.812;4.792;2022-11-14T11:04:40;30.67;;;19.00;;
27893;SDS011;15240;50.812;4.792;2022-11-14T11:09:34;29.63;;;20.10;;
27893;SDS011;15240;50.812;4.792;2022-11-14T11:12:23;31.57;;;19.70;;
27893;SDS011;15240;50.812;4.792;2022-11-14T11:17:35;31.23;;;19.90;;
27893;SDS011;15240;50.812;4.792;2022-11-14T11:25:35;34.43;;;21.10;;
27893;SDS011;15240;50.812;4.792;2022-11-14T11:30:39;34.80;;;21.47;;
27893;SDS011;15240;50.812;4.792;2022-11-14T11:33:40;34.20;;;21.57;;
27893;SDS011;15240;50.812;4.792;2022-11-14T11:36:01;32.67;;;20.77;;
27893;SDS011;15240;50.812;4.792;2022-11-14T11:38:29;34.30;;;20.60;;
27893;SDS011;15240;50.812;4.792;2022-11-14T11:41:05;34.53;;;20.90;;
27893;SDS011;15240;50.812;4.792;2022-11-14T11:43:37;31.90;;;20.27;;
27893;SDS011;15240;50.812;4.792;2022-11-14T11:46:05;34.87;;;20.90;;
27893;SDS011;15240;50.812;4.792;2022-11-14T11:48:37;32.60;;;19.40;;
27893;SDS011;15240;50.812;4.792;2022-11-14T11:51:04;33.07;;;20.17;;
27893;SDS011;15240;50.812;4.792;2022-11-14T11:53:35;36.03;;;21.33;;
27893;SDS011;15240;50.812;4.792;2022-11-14T11:56:13;34.07;;;20.57;;
27893;SDS011;15240;50.812;4.792;2022-11-14T11:58:45;35.83;;;21.03;;
27893;SDS011;15240;50.812;4.792;2022-11-14T12:01:12;35.10;;;21.70;;
27893;SDS011;15240;50.812;4.792;2022-11-14T12:03:40;33.87;;;21.23;;
27893;SDS011;15240;50.812;4.792;2022-11-14T12:06:13;34.10;;;21.43;;
27893;SDS011;15240;50.812;4.792;2022-11-14T12:09:02;33.70;;;20.30;;
27893;SDS011;15240;50.812;4.792;2022-11-14T12:11:26;33.93;;;21.37;;
27893;SDS011;15240;50.812;4.792;2022-11-14T12:16:24;35.43;;;21.03;;
27893;SDS011;15240;50.812;4.792;2022-11-14T12:19:04;33.53;;;20.77;;
27893;SDS011;15240;50.812;4.792;2022-11-14T12:26:47;33.53;;;20.30;;
27893;SDS011;15240;50.812;4.792;2022-11-14T12:31:45;34.27;;;20.43;;
27893;SDS011;15240;50.812;4.792;2022-11-14T12:34:24;30.23;;;19.23;;
27893;SDS011;15240;50.812;4.792;2022-11-14T12:36:50;33.37;;;20.70;;
27893;SDS011;15240;50.812;4.792;2022-11-14T12:39:27;31.77;;;20.87;;
27893;SDS011;15240;50.812;4.792;2022-11-14T12:42:02;33.50;;;21.50;;
27893;SDS011;15240;50.812;4.792;2022-11-14T12:49:37;34.47;;;21.67;;
27893;SDS011;15240;50.812;4.792;2022-11-14T12:52:03;32.80;;;20.30;;
27893;SDS011;15240;50.812;4.792;2022-11-14T12:54:47;37.23;;;21.27;;
27893;SDS011;15240;50.812;4.792;2022-11-14T12:57:23;33.73;;;21.97;;
27893;SDS011;15240;50.812;4.792;2022-11-14T13:00:09;34.40;;;21.20;;
27893;SDS011;15240;50.812;4.792;2022-11-14T13:05:13;38.50;;;23.87;;
27893;SDS011;15240;50.812;4.792;2022-11-14T13:10:14;35.97;;;22.77;;
27893;SDS011;15240;50.812;4.792;2022-11-14T13:12:41;33.27;;;20.67;;
27893;SDS011;15240;50.812;4.792;2022-11-14T13:18:16;37.20;;;22.70;;
27893;SDS011;15240;50.812;4.792;2022-11-14T13:21:15;35.90;;;22.73;;
27893;SDS011;15240;50.812;4.792;2022-11-14T13:23:59;35.73;;;22.00;;
27893;SDS011;15240;50.812;4.792;2022-11-14T13:28:52;32.97;;;21.23;;
27893;SDS011;15240;50.812;4.792;2022-11-14T13:31:19;35.37;;;22.80;;
27893;SDS011;15240;50.812;4.792;2022-11-14T13:33:45;36.63;;;23.43;;
27893;SDS011;15240;50.812;4.792;2022-11-14T13:38:57;37.10;;;23.13;;
27893;SDS011;15240;50.812;4.792;2022-11-14T13:52:25;35.67;;;23.07;;
27893;SDS011;15240;50.812;4.792;2022-11-14T13:54:53;33.70;;;22.17;;
27893;SDS011;15240;50.812;4.792;2022-11-14T14:05:11;37.90;;;24.17;;
27893;SDS011;15240;50.812;4.792;2022-11-14T14:13:27;33.10;;;21.67;;
27893;SDS011;15240;50.812;4.792;2022-11-14T14:21:26;33.93;;;22.23;;
27893;SDS011;15240;50.812;4.792;2022-11-14T14:29:39;34.00;;;22.40;;
27893;SDS011;15240;50.812;4.792;2022-11-14T14:32:12;32.07;;;21.37;;
27893;SDS011;15240;50.812;4.792;2022-11-14T14:34:38;34.50;;;22.43;;
27893;SDS011;15240;50.812;4.792;2022-11-14T14:37:15;31.27;;;20.50;;
27893;SDS011;15240;50.812;4.792;2022-11-14T14:39:53;34.60;;;22.67;;
27893;SDS011;15240;50.812;4.792;2022-11-14T14:42:19;35.80;;;22.47;;
27893;SDS011;15240;50.812;4.792;2022-11-14T14:44:46;32.93;;;22.03;;
27893;SDS011;15240;50.812;4.792;2022-11-14T14:50:00;34.53;;;22.40;;
27893;SDS011;15240;50.812;4.792;2022-11-14T14:52:34;33.30;;;22.47;;
27893;SDS011;15240;50.812;4.792;2022-11-14T14:55:01;34.80;;;22.67;;
27893;SDS011;15240;50.812;4.792;2022-11-14T14:57:28;32.43;;;21.50;;
27893;SDS011;15240;50.812;4.792;2022-11-14T14:59:58;29.53;;;20.90;;
27893;SDS011;15240;50.812;4.792;2022-11-14T15:02:24;32.73;;;21.60;;
27893;SDS011;15240;50.812;4.792;2022-11-14T15:04:51;30.43;;;21.83;;
27893;SDS011;15240;50.812;4.792;2022-11-14T15:07:21;34.40;;;22.27;;
27893;SDS011;15240;50.812;4.792;2022-11-14T15:09:55;31.87;;;21.80;;
27893;SDS011;15240;50.812;4.792;2022-11-14T15:12:22;32.67;;;20.43;;
27893;SDS011;15240;50.812;4.792;2022-11-14T15:14:49;29.90;;;20.57;;
27893;SDS011;15240;50.812;4.792;2022-11-14T15:17:16;33.43;;;22.43;;
27893;SDS011;15240;50.812;4.792;2022-11-14T15:19:43;33.00;;;21.70;;
27893;SDS011;15240;50.812;4.792;2022-11-14T15:24:39;30.73;;;20.17;;
27893;SDS011;15240;50.812;4.792;2022-11-14T15:27:12;30.03;;;19.90;;
27893;SDS011;15240;50.812;4.792;2022-11-14T15:29:45;29.27;;;20.17;;
27893;SDS011;15240;50.812;4.792;2022-11-14T15:32:16;31.00;;;20.83;;
27893;SDS011;15240;50.812;4.792;2022-11-14T15:35:01;35.07;;;22.33;;
27893;SDS011;15240;50.812;4.792;2022-11-14T15:37:29;31.63;;;19.93;;
27893;SDS011;15240;50.812;4.792;2022-11-14T15:40:07;32.37;;;20.93;;
27893;SDS011;15240;50.812;4.792;2022-11-14T15:42:39;30.90;;;20.13;;
27893;SDS011;15240;50.812;4.792;2022-11-14T15:45:25;32.40;;;21.87;;
27893;SDS011;15240;50.812;4.792;2022-11-14T15:48:01;37.30;;;22.20;;
27893;SDS011;15240;50.812;4.792;2022-11-14T15:50:30;32.93;;;21.30;;
27893;SDS011;15240;50.812;4.792;2022-11-14T15:52:58;31.70;;;20.90;;
27893;SDS011;15240;50.812;4.792;2022-11-14T15:55:25;30.40;;;20.67;;
27893;SDS011;15240;50.812;4.792;2022-11-14T15:57:51;31.93;;;20.20;;
27893;SDS011;15240;50.812;4.792;2022-11-14T16:00:17;33.50;;;22.30;;
27893;SDS011;15240;50.812;4.792;2022-11-14T16:02:45;35.90;;;22.07;;
27893;SDS011;15240;50.812;4.792;2022-11-14T16:05:13;36.63;;;22.87;;
27893;SDS011;15240;50.812;4.792;2022-11-14T16:07:39;38.43;;;24.60;;
27893;SDS011;15240;50.812;4.792;2022-11-14T16:10:13;38.43;;;25.30;;
27893;SDS011;15240;50.812;4.792;2022-11-14T16:12:39;41.77;;;25.33;;
27893;SDS011;15240;50.812;4.792;2022-11-14T16:15:05;53.57;;;32.70;;